Holden, UT

12:19 AM MDT on March 25, 2017 (GMT -0600)
Oak City | | Change Station

Elev 5135 ft 39.37 °N, 112.33 °W | Updated 4 minutes ago

Partly Cloudy
Partly Cloudy
49.3 °F
Feels Like 45 °F
N
12.0
Wind Variable Wind from South
Gusts 13.0 mph

Today
High -- | Low -- °F
--% Chance of Precip.
Yesterday
High -- | Low -- °F
Precip. -- in
Pressure 30.09 in
Visibility 10.0 miles
Clouds Clear
Windchill 45 °F
Dew Point 30 °F
Humidity 47%
Rainfall 0.00 in
Snow Depth Not available.
7:24 AM 7:46 PM
Waning Crescent, 10% visible
METAR KMLF 250552Z AUTO 20010KT 10SM CLR 07/M02 A3009 RMK AO2 SLPNO T00721022 10167 20072 50006
Pressure 30.09 in
Visibility 10.0 miles
Clouds Clear
Windchill 45 °F
Dew Point 30 °F
Humidity 47%
Rainfall 0.00 in
Snow Depth Not available.
7:24 AM 7:46 PM
Waning Crescent, 10% visible
METAR KMLF 250552Z AUTO 20010KT 10SM CLR 07/M02 A3009 RMK AO2 SLPNO T00721022 10167 20072 50006

Get Severe Weather Alerts

Thanks for signing up!

Be on the lookout for a verification email in your inbox.

You'll start receiving the daily forecast at 8 AM.

×

10-Day Weather Forecast

Almanac

Astronomy

Mar. 25, 2017 Rise Set
Actual Time
Civil Twilight
Nautical Twilight
Astronomical Twilight
Moon
Length of Visible Light
Length of Day
Tomorrow will be .
, % of the Moon is Illuminated

Today's Extremes

State Highs State Lows

Community

WunderPhotos

Upload Photos

1,962,540 photos uploaded!

WunderBlog® & News

Nearby

Air Quality

  Air Quality AQ Index Pollutant
Not available.

Snow Depth

Station Depth Elevation

Earthquake Activity

City Distance Mag. Time & Date
Minimum magnitude displayed is 2.5.

Earthquake Activity

City Distance Mag. Time & Date
Minimum magnitude displayed is 2.5.

Coastal Water Temperatures

Place Temperature

Stations

Nearby Weather Stations

Station Location Temp. Windchill Dew Point Humidity Wind Precip. Elev Updated Type
                   

Watches & Warnings

There are currently no watches in effect.